サンフランシスコ の空港の天気 - METARとTAF

サンフランシスコ国際空港 ( KSFO / SFO ) - アメリカ カリフォルニア州サンマテオ郡
飛行場実況気象(Metar)
観測時間11/26 23:56 PST (11/27 07:56 UTC)
風向・風速静穏 0m/s
視程10km以上
天気現象
なし
気温10.6℃
湿度71%
気圧1020hPa
METARKSFO 270756Z 00000KT 10SM CLR 11/06 A3012 RMK AO2 SLP200 T01060056 401720078
過去の天気等 Google飛行場航空写真 Wunderground天気予報

過去48時間のMETAR

飛行場予報(TAF)
発表時間: 11/26 21:39 PST (11/27 05:39 UTC)
予報対象時間: 26日22時 PST ~ 28日4時 PST
風向・風速西 3m/s
視程10km以上
なし
27日4時 PST から
風向・風速不定 2m/s
視程10km以上
少しの雲 雲底高度 180m
少しの雲 雲底高度 6100m
27日14時 PST から
風向・風速西北西 6m/s
視程10km以上
全天の4割程度の雲 雲底高度 6100m
KSFO 270539Z 2706/2812 28005KT P6SM SKC
FM271200 VRB04KT P6SM FEW006 FEW200
FM272200 29012KT P6SM SCT200